Time;durP1;ratioP1;P1;durP2;ratioP2;P2;SDS_P1;SDS_P2;PMS_P1;PMS_P2;Temp;Humidity;BMP_temperature;BMP_pressure;BME280_temperature;BME280_humidity;BME280_pressure;Samples;Min_cycle;Max_cycle;Signal;HPM_P1;HPM_P2
2022/10/19 00:02:16;;;;;;;2.00;1.90;;;;;;;23.25;62.09;98405.25;5052323;28;20197;-31
2022/10/19 00:04:43;;;;;;;2.03;1.93;;;;;;;23.28;62.15;98406.25;5048369;28;20587;-31
2022/10/19 00:07:09;;;;;;;1.93;1.83;;;;;;;23.22;61.76;98400.88;5051396;28;20765;-31
2022/10/19 00:09:36;;;;;;;2.20;2.00;;;;;;;23.25;62.02;98411.28;5049327;28;20232;-32
2022/10/19 00:12:03;;;;;;;1.90;1.80;;;;;;;23.27;62.01;98414.75;5049126;28;21066;-31
2022/10/19 00:14:29;;;;;;;1.90;1.80;;;;;;;23.28;62.23;98415.63;5049532;28;20291;-31
2022/10/19 00:16:57;;;;;;;2.50;2.03;;;;;;;23.28;62.15;98405.38;5048414;28;20299;-31
2022/10/19 00:19:24;;;;;;;2.87;2.10;;;;;;;23.29;62.04;98414.81;5048851;28;20232;-31
2022/10/19 00:21:51;;;;;;;1.90;1.80;;;;;;;23.27;61.92;98408.75;5048874;28;20212;-31
2022/10/19 00:24:17;;;;;;;1.90;1.80;;;;;;;23.22;62.14;98395.75;5048823;28;20204;-31
2022/10/19 00:26:44;;;;;;;1.97;1.87;;;;;;;23.27;62.06;98409.63;5046801;28;20197;-31
2022/10/19 00:29:11;;;;;;;1.93;1.83;;;;;;;23.28;62.23;98410.50;5048927;28;20221;-31
2022/10/19 00:31:38;;;;;;;2.20;2.10;;;;;;;23.27;62.20;98419.88;5048924;28;20796;-31
2022/10/19 00:34:04;;;;;;;1.80;1.70;;;;;;;23.28;61.84;98425.88;5049004;28;20216;-31
2022/10/19 00:36:36;;;;;;;2.30;1.90;;;;;;;23.28;62.00;98424.22;5045193;28;20224;-31
2022/10/19 00:39:03;;;;;;;2.40;2.20;;;;;;;23.28;62.03;98429.34;5048636;28;20232;-31
2022/10/19 00:41:31;;;;;;;2.20;2.10;;;;;;;23.28;62.17;98428.44;5042681;28;20751;-31
2022/10/19 00:43:59;;;;;;;2.10;1.90;;;;;;;23.28;62.09;98429.34;5048881;28;20209;-31
2022/10/19 00:46:27;;;;;;;2.10;2.00;;;;;;;23.28;62.20;98431.91;5045551;28;20409;-31
2022/10/19 00:48:58;;;;;;;2.30;2.10;;;;;;;23.28;62.03;98431.03;5046337;28;20585;-31
2022/10/19 00:51:27;;;;;;;2.03;1.90;;;;;;;23.28;62.08;98436.16;5047546;28;20205;-31
2022/10/19 00:53:54;;;;;;;2.00;1.90;;;;;;;23.26;61.88;98436.09;5044100;28;20223;-31
2022/10/19 00:56:20;;;;;;;2.37;2.17;;;;;;;23.24;62.13;98436.88;5046650;28;20209;-31
2022/10/19 00:58:47;;;;;;;1.90;1.73;;;;;;;23.25;62.28;98439.50;5030714;28;20628;-31
2022/10/19 01:01:15;;;;;;;2.10;1.90;;;;;;;23.28;62.24;98436.16;5048688;28;20200;-31
2022/10/19 01:03:42;;;;;;;1.80;1.70;;;;;;;23.25;62.03;98430.91;5025021;28;20208;-31
2022/10/19 01:06:09;;;;;;;2.10;1.90;;;;;;;23.29;62.18;98450.72;5032308;28;20210;-31
2022/10/19 01:08:35;;;;;;;2.73;1.80;;;;;;;23.28;62.12;98428.44;5047328;28;20707;-31
2022/10/19 01:11:20;;;;;;;2.00;1.90;;;;;;;23.29;61.96;98432.75;5051257;28;20207;-31
2022/10/19 01:14:08;;;;;;;2.23;2.03;;;;;;;22.65;61.94;98313.25;5046366;28;20637;-31
2022/10/19 01:17:06;;;;;;;1.90;1.80;;;;;;;23.28;62.03;98420.75;5042418;28;20219;-31
2022/10/19 01:19:41;;;;;;;2.07;1.90;;;;;;;23.27;62.36;98417.31;5045377;28;20213;-31
2022/10/19 01:22:15;;;;;;;1.90;1.80;;;;;;;23.28;62.14;98418.19;5049721;28;20200;-31
2022/10/19 01:24:54;;;;;;;1.83;1.73;;;;;;;23.28;62.29;98425.88;5048127;28;20204;-31
2022/10/19 01:27:47;;;;;;;1.80;1.70;;;;;;;23.27;62.15;98422.44;5044829;28;20205;-31
2022/10/19 01:30:51;;;;;;;2.77;1.97;;;;;;;23.27;62.29;98417.31;5051372;28;20564;-31
2022/10/19 01:33:35;;;;;;;1.90;1.80;;;;;;;23.27;62.14;98412.19;5046886;28;20227;-32
2022/10/19 01:36:14;;;;;;;1.83;1.73;;;;;;;23.27;61.93;98413.91;5054276;28;20201;-31
2022/10/19 01:39:15;;;;;;;2.10;2.00;;;;;;;23.26;62.22;98407.88;5054092;28;20232;-31
2022/10/19 01:42:00;;;;;;;2.17;2.07;;;;;;;23.26;61.82;98407.00;5048244;28;20216;-31
2022/10/19 01:44:34;;;;;;;1.80;1.70;;;;;;;23.25;61.97;98408.72;5050692;28;20200;-31
2022/10/19 01:47:06;;;;;;;3.27;1.93;;;;;;;23.25;62.07;98408.72;5052116;28;20200;-31
2022/10/19 01:49:56;;;;;;;2.00;1.90;;;;;;;23.26;61.99;98399.31;5050235;28;20660;-31
2022/10/19 01:52:22;;;;;;;2.77;1.90;;;;;;;23.24;61.63;98406.94;5054207;28;20569;-31
2022/10/19 01:54:51;;;;;;;2.07;1.97;;;;;;;23.23;61.97;98397.47;5040268;28;20216;-32
2022/10/19 01:57:20;;;;;;;1.80;1.70;;;;;;;23.20;62.21;98388.78;5029031;28;20209;-31
2022/10/19 01:59:47;;;;;;;2.00;1.90;;;;;;;23.25;62.16;98405.25;5033261;28;20221;-31
2022/10/19 02:02:14;;;;;;;1.83;1.73;;;;;;;23.25;61.90;98408.72;5048430;28;20207;-31
2022/10/19 02:04:40;;;;;;;2.13;2.03;;;;;;;23.22;62.22;98402.53;5056705;28;20204;-31
2022/10/19 02:07:07;;;;;;;1.90;1.80;;;;;;;23.23;62.15;98394.91;5033721;28;20585;-31
2022/10/19 02:09:33;;;;;;;2.00;1.90;;;;;;;23.25;61.98;98398.44;5049885;28;20220;-32
2022/10/19 02:12:02;;;;;;;1.77;1.67;;;;;;;23.26;61.90;98400.19;5048912;28;20676;-31
2022/10/19 02:14:31;;;;;;;1.70;1.60;;;;;;;23.26;62.01;98394.16;5050623;28;20254;-31
2022/10/19 02:17:02;;;;;;;1.70;1.60;;;;;;;23.26;61.91;98392.50;5033086;28;20222;-31
2022/10/19 02:19:29;;;;;;;1.87;1.77;;;;;;;23.20;62.06;98376.84;5044941;28;20224;-31
2022/10/19 02:21:55;;;;;;;2.33;1.67;;;;;;;23.24;62.08;98378.72;5048322;28;20212;-31
2022/10/19 02:24:22;;;;;;;2.13;1.93;;;;;;;23.21;62.13;98377.72;5055725;28;20640;-31
2022/10/19 02:26:49;;;;;;;1.90;1.80;;;;;;;23.27;61.52;98380.56;5051959;28;20201;-31
2022/10/19 02:29:15;;;;;;;2.03;1.90;;;;;;;23.27;61.99;98377.97;5053934;28;20220;-31
2022/10/19 02:31:42;;;;;;;1.90;1.80;;;;;;;23.25;62.19;98380.50;5059112;28;20211;-31
2022/10/19 02:34:08;;;;;;;2.00;1.90;;;;;;;23.26;62.00;98369.41;5044237;28;20235;-31
2022/10/19 02:36:35;;;;;;;1.70;1.60;;;;;;;23.27;62.26;98377.97;5050482;28;20223;-31
2022/10/19 02:39:01;;;;;;;2.17;2.03;;;;;;;23.26;62.16;98374.53;5055960;28;20220;-31
2022/10/19 02:41:37;;;;;;;1.90;1.80;;;;;;;23.14;62.09;98344.97;5048834;28;20244;-31
2022/10/19 02:44:13;;;;;;;1.73;1.63;;;;;;;23.19;61.88;98353.72;5050700;28;20195;-31
2022/10/19 02:46:43;;;;;;;1.80;1.70;;;;;;;23.27;62.14;98365.16;5033985;28;20212;-31
2022/10/19 02:49:09;;;;;;;1.90;1.80;;;;;;;23.27;61.94;98362.59;5049283;28;20232;-31
2022/10/19 02:51:37;;;;;;;1.90;1.80;;;;;;;23.27;61.85;98370.28;5047271;28;20204;-32
2022/10/19 02:54:05;;;;;;;2.17;2.00;;;;;;;23.25;62.14;98357.41;5050519;28;20654;-31
2022/10/19 02:56:32;;;;;;;1.70;1.60;;;;;;;23.27;61.89;98366.00;5049632;28;20383;-31
2022/10/19 02:58:59;;;;;;;1.93;1.80;;;;;;;23.28;62.01;98369.47;5050648;28;20231;-31
2022/10/19 03:01:26;;;;;;;2.27;2.07;;;;;;;23.25;61.75;98362.53;5051483;28;20201;-32
2022/10/19 03:03:52;;;;;;;1.90;1.80;;;;;;;23.28;62.20;98366.91;5049335;28;20201;-31
2022/10/19 03:06:19;;;;;;;1.90;1.80;;;;;;;23.27;61.97;98365.16;5051516;28;20213;-31
2022/10/19 03:08:45;;;;;;;1.80;1.70;;;;;;;23.27;61.95;98363.44;5050922;28;20721;-31
2022/10/19 03:11:12;;;;;;;1.80;1.70;;;;;;;23.27;61.85;98360.03;5050579;28;20217;-31
2022/10/19 03:13:40;;;;;;;1.80;1.70;;;;;;;23.25;61.83;98356.53;5047590;28;20251;-31
2022/10/19 03:16:10;;;;;;;1.90;1.80;;;;;;;23.28;61.90;98351.50;5060059;28;20209;-31
2022/10/19 03:18:37;;;;;;;1.80;1.70;;;;;;;23.26;61.90;98343.75;5045962;28;20228;-31
2022/10/19 03:21:05;;;;;;;1.83;1.70;;;;;;;23.27;62.05;98348.06;5050149;28;20222;-31
2022/10/19 03:23:32;;;;;;;1.70;1.60;;;;;;;23.27;62.16;98353.19;5048328;28;20201;-31
2022/10/19 03:25:58;;;;;;;2.07;1.97;;;;;;;23.27;62.16;98353.19;5049971;28;20208;-32
2022/10/19 03:28:25;;;;;;;1.87;1.77;;;;;;;23.27;62.20;98342.94;5050016;28;20224;-31
2022/10/19 03:30:51;;;;;;;2.00;1.90;;;;;;;23.20;61.96;98333.25;5050019;28;20263;-31
2022/10/19 03:33:18;;;;;;;2.00;1.90;;;;;;;23.27;61.87;98347.22;5047150;28;20220;-31
2022/10/19 03:35:45;;;;;;;1.70;1.60;;;;;;;23.25;62.19;98346.25;5045706;28;20208;-31
2022/10/19 03:38:11;;;;;;;2.10;1.90;;;;;;;23.26;62.18;98338.63;5047539;28;20236;-31
2022/10/19 03:40:38;;;;;;;1.73;1.63;;;;;;;23.27;62.18;98342.94;5045665;28;20201;-32
2022/10/19 03:43:04;;;;;;;1.67;1.57;;;;;;;23.24;62.10;98334.28;5053751;28;20577;-31
2022/10/19 03:45:31;;;;;;;1.90;1.80;;;;;;;23.28;62.12;98343.81;5048386;28;20207;-31
2022/10/19 03:47:58;;;;;;;1.83;1.73;;;;;;;23.28;62.06;98351.50;5047750;28;20229;-31
2022/10/19 03:50:24;;;;;;;2.07;1.70;;;;;;;23.25;62.02;98339.47;5054908;28;20205;-32
2022/10/19 03:52:51;;;;;;;1.90;1.80;;;;;;;23.27;62.15;98339.50;5048998;28;20208;-31
2022/10/19 03:55:17;;;;;;;1.90;1.80;;;;;;;22.61;62.26;98237.94;5048701;28;20201;-31
2022/10/19 03:57:44;;;;;;;2.10;2.00;;;;;;;23.27;62.37;98342.06;5051913;28;20684;-31
2022/10/19 04:00:11;;;;;;;1.80;1.70;;;;;;;23.27;62.47;98345.50;5049075;28;20201;-31
2022/10/19 04:02:37;;;;;;;1.67;1.57;;;;;;;23.27;62.30;98357.47;5056182;28;20219;-31
2022/10/19 04:05:04;;;;;;;1.90;1.80;;;;;;;23.28;62.33;98356.63;5055775;28;20208;-31
2022/10/19 04:07:31;;;;;;;2.03;1.87;;;;;;;23.25;62.10;98352.28;5054684;28;20208;-31
2022/10/19 04:09:58;;;;;;;1.87;1.77;;;;;;;23.27;61.92;98353.19;5047763;28;20562;-31
2022/10/19 04:12:24;;;;;;;1.90;1.80;;;;;;;23.24;62.06;98340.25;5038864;28;20202;-32
2022/10/19 04:14:51;;;;;;;1.70;1.60;;;;;;;23.22;62.07;98336.75;5041185;28;20778;-31
2022/10/19 04:17:23;;;;;;;1.90;1.80;;;;;;;23.25;61.85;98342.03;5046759;28;20288;-31
2022/10/19 04:19:50;;;;;;;2.10;1.97;;;;;;;23.26;61.54;98354.00;5048602;28;20221;-31
2022/10/19 04:22:16;;;;;;;2.10;1.77;;;;;;;23.26;62.14;98346.31;5045754;28;20211;-31
2022/10/19 04:24:43;;;;;;;1.77;1.67;;;;;;;23.25;62.02;98349.72;5035904;28;20198;-31
2022/10/19 04:27:09;;;;;;;1.90;1.80;;;;;;;23.25;62.16;98357.41;5046917;28;20675;-31
2022/10/19 04:29:36;;;;;;;2.13;1.93;;;;;;;23.26;62.13;98354.00;5048283;28;20306;-31
2022/10/19 04:32:02;;;;;;;2.00;1.80;;;;;;;23.26;62.02;98359.16;5046927;28;20204;-31
2022/10/19 04:34:28;;;;;;;1.77;1.67;;;;;;;23.26;62.10;98361.72;5053370;28;20291;-31
2022/10/19 04:36:58;;;;;;;2.00;1.90;;;;;;;23.25;62.05;98352.28;5053222;28;20280;-31
2022/10/19 04:39:24;;;;;;;1.90;1.80;;;;;;;23.26;61.82;98361.72;5043476;28;20644;-31
2022/10/19 04:41:51;;;;;;;1.90;1.80;;;;;;;23.26;62.06;98356.56;5047059;28;20207;-32
2022/10/19 04:44:18;;;;;;;1.70;1.60;;;;;;;23.26;62.13;98360.81;5050390;28;20192;-31
2022/10/19 04:46:44;;;;;;;2.00;1.90;;;;;;;23.26;62.00;98361.72;5044039;28;20197;-31
2022/10/19 04:49:11;;;;;;;1.97;1.87;;;;;;;23.26;62.14;98358.25;5040866;28;20232;-31
2022/10/19 04:51:43;;;;;;;1.97;1.87;;;;;;;23.27;62.07;98362.59;5045733;28;20204;-31
2022/10/19 04:54:09;;;;;;;2.20;2.00;;;;;;;23.26;62.14;98356.56;5047645;28;20237;-31
2022/10/19 04:56:36;;;;;;;1.80;1.70;;;;;;;23.27;62.24;98360.03;5038429;28;20212;-31
2022/10/19 04:59:02;;;;;;;1.80;1.70;;;;;;;23.27;62.34;98360.03;5049381;28;21094;-31
2022/10/19 05:01:29;;;;;;;1.83;1.73;;;;;;;23.24;62.03;98360.78;5047522;28;20590;-31
2022/10/19 05:03:57;;;;;;;1.90;1.80;;;;;;;23.26;62.21;98365.97;5044755;28;20205;-31
2022/10/19 05:06:24;;;;;;;1.87;1.77;;;;;;;23.23;62.16;98359.00;5047992;28;20651;-31
2022/10/19 05:08:51;;;;;;;1.90;1.80;;;;;;;23.23;62.13;98350.41;5045008;28;20711;-31
2022/10/19 05:11:18;;;;;;;2.10;2.00;;;;;;;23.23;62.19;98353.00;5048224;28;20212;-31
2022/10/19 05:13:44;;;;;;;1.93;1.83;;;;;;;23.28;62.03;98359.19;5044847;28;20225;-31
2022/10/19 05:16:18;;;;;;;2.00;1.90;;;;;;;23.25;62.40;98351.41;5042158;28;20208;-31
2022/10/19 05:18:48;;;;;;;6.27;5.67;;;;;;;23.29;61.90;98354.13;5041071;28;20232;-31
2022/10/19 05:21:15;;;;;;;9.13;7.73;;;;;;;23.29;61.24;98359.25;5055940;28;20584;-32
2022/10/19 05:23:42;;;;;;;9.20;8.40;;;;;;;23.29;60.62;98353.25;5045813;28;20663;-31
2022/10/19 05:26:10;;;;;;;8.33;7.53;;;;;;;23.23;60.93;98342.72;5042715;28;20201;-32
2022/10/19 05:28:37;;;;;;;9.13;7.67;;;;;;;23.28;61.43;98352.38;5041964;28;20220;-32
2022/10/19 05:31:13;;;;;;;8.87;7.97;;;;;;;23.25;61.12;98347.16;5042414;28;20968;-31
2022/10/19 05:33:40;;;;;;;9.20;8.40;;;;;;;23.27;61.22;98360.88;5039482;28;20232;-31
2022/10/19 05:36:17;;;;;;;8.73;7.83;;;;;;;23.26;61.23;98354.00;5043684;28;20200;-31
2022/10/19 05:38:44;;;;;;;9.53;8.53;;;;;;;23.24;61.09;98344.53;5047867;28;20216;-31
2022/10/19 05:41:11;;;;;;;8.90;8.00;;;;;;;23.24;61.04;98352.22;5042744;28;20207;-31
2022/10/19 05:43:38;;;;;;;8.07;7.37;;;;;;;23.26;61.08;98350.56;5040526;28;20201;-31
2022/10/19 05:46:07;;;;;;;11.03;7.67;;;;;;;23.25;61.03;98348.84;5049590;28;20211;-31
2022/10/19 05:48:34;;;;;;;7.83;7.13;;;;;;;23.26;60.91;98358.25;5044856;28;20217;-31
2022/10/19 05:51:01;;;;;;;8.60;7.30;;;;;;;23.25;60.87;98361.66;5047131;28;20211;-31
2022/10/19 05:53:28;;;;;;;7.07;6.47;;;;;;;23.25;61.26;98359.97;5045557;28;20582;-31
2022/10/19 05:55:54;;;;;;;7.13;6.40;;;;;;;23.25;61.17;98364.22;5044293;28;20229;-31
2022/10/19 05:58:21;;;;;;;6.80;6.10;;;;;;;23.25;61.03;98359.09;5060700;28;20216;-31
2022/10/19 06:00:52;;;;;;;6.60;6.00;;;;;;;23.24;61.27;98358.22;5058637;28;20216;-31
2022/10/19 06:03:19;;;;;;;6.40;5.80;;;;;;;23.24;61.26;98352.22;5054322;28;20201;-31
2022/10/19 06:05:45;;;;;;;5.73;5.23;;;;;;;23.23;61.19;98353.88;5043186;28;20209;-31
2022/10/19 06:08:12;;;;;;;6.73;5.00;;;;;;;23.24;61.17;98349.66;5047980;28;20220;-31
2022/10/19 06:10:38;;;;;;;5.77;5.27;;;;;;;23.21;61.33;98347.81;5042337;28;20553;-31
2022/10/19 06:13:05;;;;;;;5.70;5.20;;;;;;;23.22;61.57;98351.25;5043739;28;20958;-32
2022/10/19 06:15:32;;;;;;;5.30;4.90;;;;;;;23.25;61.26;98356.53;5049491;28;20228;-31
2022/10/19 06:17:59;;;;;;;5.03;4.63;;;;;;;23.24;61.41;98357.34;5057049;28;20225;-31
2022/10/19 06:20:28;;;;;;;4.90;4.50;;;;;;;23.25;61.63;98356.53;5052515;28;20214;-31
2022/10/19 06:22:54;;;;;;;4.90;4.50;;;;;;;23.23;61.63;98361.56;5042319;28;20201;-31
2022/10/19 06:25:21;;;;;;;4.87;4.47;;;;;;;23.25;61.63;98359.09;5051252;28;20234;-31
2022/10/19 06:27:47;;;;;;;5.07;4.57;;;;;;;23.25;61.45;98359.97;5046937;28;20204;-31
2022/10/19 06:30:14;;;;;;;4.57;4.17;;;;;;;23.25;61.73;98367.66;5050236;28;20209;-31
2022/10/19 06:32:41;;;;;;;4.23;3.93;;;;;;;23.20;61.47;98355.44;5048112;28;20260;-31
2022/10/19 06:35:07;;;;;;;4.37;4.03;;;;;;;23.25;61.53;98364.22;5035260;28;20735;-31
2022/10/19 06:37:34;;;;;;;4.43;4.03;;;;;;;23.26;61.56;98373.66;5041943;28;20209;-31
2022/10/19 06:40:01;;;;;;;4.17;3.77;;;;;;;23.26;61.40;98371.09;5041093;28;20240;-31
2022/10/19 06:42:32;;;;;;;4.63;3.80;;;;;;;23.24;61.74;98367.63;5045689;28;20288;-31
2022/10/19 06:44:59;;;;;;;11.00;4.40;;;;;;;23.23;61.53;98355.56;5042076;28;20204;-31
2022/10/19 06:47:30;;;;;;;4.83;4.20;;;;;;;23.25;61.54;98370.22;5047650;28;20205;-31
2022/10/19 06:49:56;;;;;;;6.20;3.80;;;;;;;23.20;61.48;98358.91;5047328;28;20228;-31
2022/10/19 06:52:23;;;;;;;5.03;4.53;;;;;;;23.26;61.68;98371.97;5033909;28;20216;-31
2022/10/19 06:54:49;;;;;;;8.40;4.43;;;;;;;23.26;61.61;98366.84;5053020;28;20224;-31
2022/10/19 06:57:16;;;;;;;5.03;3.53;;;;;;;23.25;61.56;98365.09;5039108;28;20213;-31
2022/10/19 06:59:42;;;;;;;4.07;3.67;;;;;;;23.25;61.40;98369.34;5040310;28;20600;-31
2022/10/19 07:02:10;;;;;;;4.00;3.50;;;;;;;23.25;61.31;98370.22;5040725;28;20201;-31
2022/10/19 07:04:36;;;;;;;3.37;3.10;;;;;;;23.26;61.61;98368.53;5043934;28;20660;-31
2022/10/19 07:07:03;;;;;;;4.17;3.87;;;;;;;23.17;61.58;98353.66;5047883;28;20510;-31
2022/10/19 07:09:30;;;;;;;3.93;3.50;;;;;;;23.23;61.67;98368.38;5051546;28;20247;-31
2022/10/19 07:11:56;;;;;;;3.07;2.87;;;;;;;23.26;61.46;98378.78;5048067;28;20216;-31
2022/10/19 07:14:27;;;;;;;4.23;3.50;;;;;;;23.26;61.24;98377.09;5045481;28;20259;-31
2022/10/19 07:16:54;;;;;;;3.20;2.77;;;;;;;23.25;61.46;98380.50;5046225;28;20242;-31
2022/10/19 07:19:21;;;;;;;7.00;3.10;;;;;;;23.26;61.54;98373.66;5046477;28;20236;-31
2022/10/19 07:21:51;;;;;;;3.03;2.83;;;;;;;23.22;61.55;98371.78;5048039;28;20204;-31
2022/10/19 07:24:17;;;;;;;3.27;2.97;;;;;;;23.26;61.49;98384.78;5044617;28;20319;-31
2022/10/19 07:26:44;;;;;;;3.07;2.83;;;;;;;23.17;61.52;98369.03;5047881;28;20212;-31
2022/10/19 07:29:11;;;;;;;2.90;2.70;;;;;;;23.27;61.57;98388.25;5044668;28;20228;-31
2022/10/19 07:31:37;;;;;;;3.10;2.90;;;;;;;23.27;61.11;98388.25;5046811;28;20216;-31
2022/10/19 07:34:04;;;;;;;2.80;2.60;;;;;;;23.27;61.66;98385.69;5040417;28;20209;-32
2022/10/19 07:36:32;;;;;;;3.00;2.80;;;;;;;23.27;61.45;98381.41;5040673;28;20687;-31
2022/10/19 07:39:04;;;;;;;2.97;2.67;;;;;;;23.28;61.60;98382.28;5047373;28;20232;-31
2022/10/19 07:41:30;;;;;;;3.57;2.90;;;;;;;23.25;61.81;98374.47;5041254;28;20205;-31
2022/10/19 07:43:57;;;;;;;2.80;2.60;;;;;;;23.27;61.71;98377.97;5045609;28;20576;-31
2022/10/19 07:46:26;;;;;;;2.50;2.30;;;;;;;23.28;61.88;98382.28;5045674;28;20210;-32
2022/10/19 07:48:52;;;;;;;2.73;2.40;;;;;;;23.27;61.64;98378.84;5038573;28;20224;-31
2022/10/19 07:51:19;;;;;;;2.63;2.43;;;;;;;23.25;61.70;98371.91;5042998;28;20197;-31
2022/10/19 07:53:45;;;;;;;2.40;2.30;;;;;;;23.27;61.46;98378.84;5043282;28;20256;-31
2022/10/19 07:56:19;;;;;;;2.60;2.40;;;;;;;23.24;61.59;98380.44;5042768;28;20514;-32
2022/10/19 07:58:46;;;;;;;2.83;2.63;;;;;;;23.28;61.48;98382.28;5041402;28;20225;-32
2022/10/19 08:01:15;;;;;;;2.47;2.30;;;;;;;23.28;61.48;98389.97;5047793;28;20291;-31
2022/10/19 08:03:41;;;;;;;4.27;2.40;;;;;;;23.28;61.46;98390.88;5047066;28;20208;-31
2022/10/19 08:06:28;;;;;;;2.33;2.23;;;;;;;23.29;61.46;98390.03;5043429;28;20200;-31
2022/10/19 08:08:55;;;;;;;2.60;2.40;;;;;;;23.28;61.49;98385.72;5051080;28;20308;-32
2022/10/19 08:11:26;;;;;;;2.50;2.30;;;;;;;23.28;61.43;98393.44;5040384;28;20208;-31
2022/10/19 08:13:53;;;;;;;2.20;2.10;;;;;;;23.27;61.85;98390.81;5051491;28;20552;-31
2022/10/19 08:16:25;;;;;;;2.60;2.40;;;;;;;23.29;61.80;98395.16;5043352;28;20327;-31
2022/10/19 08:18:54;;;;;;;2.37;2.17;;;;;;;23.27;61.85;98403.63;5033532;28;20227;-31
2022/10/19 08:21:21;;;;;;;2.27;2.10;;;;;;;23.25;61.57;98395.88;5043149;28;20197;-32
2022/10/19 08:23:47;;;;;;;2.50;2.30;;;;;;;23.29;61.64;98397.72;5030012;28;20288;-31
2022/10/19 08:26:14;;;;;;;2.47;2.10;;;;;;;23.29;62.05;98399.41;5042871;28;20201;-31
2022/10/19 08:28:40;;;;;;;2.80;2.00;;;;;;;23.29;61.66;98400.28;5032277;28;20217;-31
2022/10/19 08:31:20;;;;;;;2.00;1.90;;;;;;;23.30;61.73;98393.47;5045101;28;20205;-31
2022/10/19 08:33:50;;;;;;;2.30;2.10;;;;;;;23.29;61.52;98402.88;5040171;28;20823;-31
2022/10/19 08:36:18;;;;;;;2.60;2.40;;;;;;;23.29;61.60;98397.72;5030367;28;20526;-31
2022/10/19 08:38:47;;;;;;;2.10;2.00;;;;;;;23.29;61.75;98392.59;5037487;28;21342;-31
2022/10/19 08:41:45;;;;;;;2.27;2.07;;;;;;;23.29;61.64;98400.28;5035390;28;20197;-31
2022/10/19 08:44:23;;;;;;;2.30;2.10;;;;;;;23.29;61.88;98405.44;5037905;28;20204;-31
2022/10/19 08:46:58;;;;;;;2.00;1.90;;;;;;;23.26;61.79;98395.06;5042401;28;20644;-31
2022/10/19 08:49:28;;;;;;;2.00;1.90;;;;;;;23.22;61.80;98389.72;5041495;28;20224;-31
2022/10/19 08:51:57;;;;;;;3.07;2.10;;;;;;;23.24;61.68;98391.56;5035677;28;20198;-31
2022/10/19 08:54:27;;;;;;;2.40;2.20;;;;;;;23.27;61.75;98398.50;5051153;28;20201;-31
2022/10/19 08:57:04;;;;;;;2.73;2.53;;;;;;;23.30;61.49;98393.47;5034558;28;20197;-32
2022/10/19 08:59:43;;;;;;;4.47;3.13;;;;;;;23.29;61.19;98392.59;5010449;28;20228;-31
2022/10/19 09:02:15;;;;;;;5.90;3.10;;;;;;;23.25;61.20;98385.63;5040615;28;20272;-31
2022/10/19 09:04:46;;;;;;;4.33;2.70;;;;;;;23.29;61.47;98386.59;5022967;28;20208;-31
2022/10/19 09:07:30;;;;;;;3.30;2.50;;;;;;;23.27;61.31;98383.97;5044160;28;20204;-31
2022/10/19 09:10:01;;;;;;;3.77;2.73;;;;;;;23.28;61.32;98389.97;5041356;28;20642;-31
2022/10/19 09:12:38;;;;;;;2.90;2.67;;;;;;;23.24;61.53;98380.44;5037832;28;20690;-31
2022/10/19 09:15:09;;;;;;;2.73;2.47;;;;;;;23.28;61.62;98389.97;5025882;28;20764;-31
2022/10/19 09:17:35;;;;;;;2.67;2.40;;;;;;;23.25;61.41;98382.19;5040249;28;20204;-32
2022/10/19 09:20:18;;;;;;;2.40;2.20;;;;;;;23.28;61.41;98387.41;5039358;28;20213;-31
2022/10/19 09:22:45;;;;;;;2.73;2.40;;;;;;;23.27;61.48;98389.09;5039920;28;20201;-31
2022/10/19 09:25:19;;;;;;;2.97;2.23;;;;;;;23.27;61.58;98390.81;5044373;28;20205;-31
2022/10/19 09:27:55;;;;;;;4.70;2.20;;;;;;;23.24;61.55;98383.84;5034290;28;20200;-31
2022/10/19 09:30:22;;;;;;;2.80;2.53;;;;;;;23.27;61.57;98385.69;5043987;28;20207;-31
2022/10/19 09:32:54;;;;;;;2.50;2.30;;;;;;;23.25;61.54;98389.88;5037463;28;20200;-31
2022/10/19 09:35:33;;;;;;;2.50;2.30;;;;;;;23.15;61.62;98370.66;5024415;28;20723;-31
2022/10/19 09:37:59;;;;;;;3.37;2.70;;;;;;;23.28;61.70;98410.50;5028788;28;20225;-31
2022/10/19 09:40:27;;;;;;;2.30;2.10;;;;;;;23.28;61.71;98397.69;5042999;28;20213;-31
2022/10/19 09:42:57;;;;;;;2.40;2.20;;;;;;;23.28;61.50;98397.69;5038850;28;20204;-31
2022/10/19 09:45:48;;;;;;;2.50;2.30;;;;;;;23.27;61.52;98399.34;5047272;28;20212;-31
2022/10/19 09:48:23;;;;;;;2.60;2.40;;;;;;;23.28;61.53;98401.13;5041730;28;20228;-31
2022/10/19 09:50:53;;;;;;;1.97;1.87;;;;;;;23.20;61.63;98391.34;5059330;28;20204;-31
2022/10/19 09:53:19;;;;;;;2.20;2.00;;;;;;;23.26;61.41;98394.16;5062693;28;20203;-31
2022/10/19 09:55:50;;;;;;;2.07;1.97;;;;;;;23.18;61.46;98386.16;5052854;28;20235;-31
2022/10/19 09:58:17;;;;;;;2.03;1.93;;;;;;;23.27;61.52;98401.91;5059108;28;20220;-32
2022/10/19 10:00:49;;;;;;;2.40;2.20;;;;;;;23.28;61.76;98402.81;5055811;28;20375;-31
2022/10/19 10:03:31;;;;;;;1.90;1.80;;;;;;;23.28;61.74;98403.69;5051759;28;20209;-32
2022/10/19 10:06:00;;;;;;;1.90;1.80;;;;;;;23.28;61.51;98401.13;5062457;28;20200;-32
2022/10/19 10:08:29;;;;;;;2.07;1.97;;;;;;;23.29;61.65;98405.44;5046198;28;20635;-31
2022/10/19 10:11:15;;;;;;;1.90;1.80;;;;;;;23.29;61.52;98407.09;5033359;28;20208;-31
2022/10/19 10:13:42;;;;;;;2.00;1.90;;;;;;;23.29;61.45;98407.09;5054601;28;20211;-31
2022/10/19 10:16:12;;;;;;;2.17;1.97;;;;;;;23.24;61.60;98391.56;5061070;28;20228;-31
2022/10/19 10:18:48;;;;;;;1.97;1.87;;;;;;;23.29;61.49;98399.41;5051884;28;20225;-31
2022/10/19 10:21:25;;;;;;;2.00;1.90;;;;;;;23.29;61.28;98401.97;5042472;28;20204;-31
2022/10/19 10:24:04;;;;;;;1.90;1.80;;;;;;;23.30;61.72;98401.19;5053047;28;20236;-31
2022/10/19 10:26:31;;;;;;;2.17;2.00;;;;;;;23.29;61.66;98395.16;5053060;28;20662;-31
2022/10/19 10:28:57;;;;;;;1.83;1.73;;;;;;;23.29;61.57;98396.84;5055873;28;20302;-31
2022/10/19 10:31:27;;;;;;;1.80;1.70;;;;;;;23.29;61.57;98384.03;5060519;28;20228;-31
2022/10/19 10:34:00;;;;;;;2.00;1.90;;;;;;;23.17;61.53;98361.34;5058451;28;20209;-31
2022/10/19 10:36:50;;;;;;;2.03;1.90;;;;;;;23.30;61.73;98378.09;5054653;28;20229;-31
2022/10/19 10:39:16;;;;;;;2.00;1.90;;;;;;;23.31;61.63;98379.81;5062026;28;20216;-31
2022/10/19 10:41:43;;;;;;;2.27;2.07;;;;;;;23.25;61.67;98361.66;5057445;28;20200;-31
2022/10/19 10:44:15;;;;;;;2.10;1.90;;;;;;;23.30;61.60;98370.41;5050439;28;20204;-31
2022/10/19 10:46:52;;;;;;;1.83;1.73;;;;;;;23.27;61.59;98368.56;5048648;28;20292;-31
2022/10/19 10:49:22;;;;;;;2.10;2.00;;;;;;;23.30;61.64;98370.41;5023540;28;20759;-31
2022/10/19 10:51:54;;;;;;;2.10;1.90;;;;;;;23.25;61.61;98359.97;5051759;28;20793;-31
2022/10/19 10:54:21;;;;;;;3.00;1.77;;;;;;;23.30;61.47;98349.88;5036606;28;20197;-31
2022/10/19 10:57:14;;;;;;;2.20;2.10;;;;;;;23.30;61.48;98340.47;5054448;28;20221;-31
2022/10/19 11:00:09;;;;;;;2.30;2.10;;;;;;;23.30;61.55;98334.50;5049308;28;20737;-31
2022/10/19 11:02:45;;;;;;;2.03;1.93;;;;;;;23.28;61.62;98337.00;5050367;28;20200;-31
2022/10/19 11:05:25;;;;;;;1.80;1.70;;;;;;;23.30;61.79;98335.34;5050744;28;20466;-31
2022/10/19 11:07:58;;;;;;;1.87;1.77;;;;;;;23.27;61.68;98327.53;5060207;28;20585;-31
2022/10/19 11:10:36;;;;;;;2.50;1.83;;;;;;;23.30;61.94;98332.78;5058709;28;20663;-31
2022/10/19 11:13:05;;;;;;;1.90;1.80;;;;;;;23.30;61.69;98335.34;5062223;28;20204;-32
2022/10/19 11:15:51;;;;;;;1.97;1.80;;;;;;;23.29;61.56;98333.59;5060572;28;20620;-31
2022/10/19 11:18:24;;;;;;;2.00;1.90;;;;;;;23.31;61.78;98328.53;5054000;28;20631;-31
2022/10/19 11:21:10;;;;;;;2.00;1.90;;;;;;;23.28;61.49;98324.19;5055251;28;20201;-31
2022/10/19 11:23:49;;;;;;;1.80;1.70;;;;;;;23.30;61.60;98334.50;5057877;28;20207;-31
2022/10/19 11:26:44;;;;;;;1.97;1.87;;;;;;;23.30;61.56;98314.81;5053179;28;20677;-31
2022/10/19 11:29:23;;;;;;;1.97;1.70;;;;;;;23.29;61.53;98318.22;5053379;28;20217;-31
2022/10/19 11:31:53;;;;;;;2.00;1.90;;;;;;;23.29;61.36;98315.66;5057735;28;20201;-31
2022/10/19 11:34:48;;;;;;;1.80;1.70;;;;;;;23.29;61.47;98307.06;5058643;28;20208;-32
2022/10/19 11:37:14;;;;;;;1.90;1.80;;;;;;;23.30;61.52;98301.13;5045921;28;20225;-31
2022/10/19 11:39:50;;;;;;;2.00;1.90;;;;;;;23.28;61.47;98305.34;5057926;28;20220;-31
2022/10/19 11:43:12;;;;;;;1.90;1.80;;;;;;;23.19;61.59;98279.34;5042161;28;20215;-31
2022/10/19 11:45:57;;;;;;;1.97;1.87;;;;;;;23.28;61.38;98298.53;5023424;28;20213;-31
2022/10/19 11:48:26;;;;;;;2.00;1.90;;;;;;;23.29;61.50;98295.13;5052461;28;20227;-32
2022/10/19 11:51:18;;;;;;;1.60;1.50;;;;;;;23.28;61.59;98278.00;5057227;28;20575;-31